createdAt,value
2022-09-23T00:01:03.626Z,11.00
2022-09-23T00:03:31.871Z,10.35
2022-09-23T00:06:04.606Z,10.55
2022-09-23T00:08:31.557Z,11.18
2022-09-23T00:11:03.820Z,10.27
2022-09-23T00:13:30.475Z,10.80
2022-09-23T00:15:57.095Z,10.93
2022-09-23T00:18:23.728Z,11.32
2022-09-23T00:20:50.360Z,11.80
2022-09-23T00:23:17.103Z,10.43
2022-09-23T00:25:43.746Z,10.23
2022-09-23T00:28:10.414Z,10.68
2022-09-23T00:30:37.102Z,10.63
2022-09-23T00:33:03.851Z,10.80
2022-09-23T00:35:30.496Z,10.93
2022-09-23T00:37:57.458Z,10.25
2022-09-23T00:40:24.407Z,10.50
2022-09-23T00:42:52.126Z,10.18
2022-09-23T00:45:19.486Z,9.95
2022-09-23T00:47:51.017Z,9.52
2022-09-23T00:50:24.560Z,10.75
2022-09-23T00:52:54.726Z,9.98
2022-09-23T00:55:26.694Z,10.48
2022-09-23T00:57:57.689Z,11.00
2022-09-23T01:00:24.968Z,9.02
2022-09-23T01:02:51.748Z,10.07
2022-09-23T01:05:18.953Z,9.88
2022-09-23T01:07:46.458Z,9.27
2022-09-23T01:10:15.780Z,9.93
2022-09-23T01:12:56.069Z,10.32
2022-09-23T01:15:44.722Z,9.02
2022-09-23T01:18:21.949Z,9.77
2022-09-23T01:21:07.020Z,10.48
2022-09-23T01:24:02.777Z,10.23
2022-09-23T01:27:14.148Z,9.50
2022-09-23T01:29:59.245Z,9.52
2022-09-23T01:32:43.854Z,10.00
2022-09-23T01:35:13.491Z,10.02
2022-09-23T01:37:51.418Z,9.60
2022-09-23T01:40:31.217Z,10.15
2022-09-23T01:43:07.718Z,10.05
2022-09-23T01:45:42.164Z,9.82
2022-09-23T01:48:21.388Z,10.43
2022-09-23T01:50:58.287Z,11.85
2022-09-23T01:53:49.521Z,11.05
2022-09-23T01:56:42.989Z,10.40
2022-09-23T01:59:28.108Z,9.50
2022-09-23T02:02:11.037Z,9.35
2022-09-23T02:04:52.017Z,9.82
2022-09-23T02:07:29.264Z,10.07
2022-09-23T02:10:16.657Z,10.38
2022-09-23T02:12:49.723Z,9.52
2022-09-23T02:15:24.927Z,9.27
2022-09-23T02:17:56.505Z,10.38
2022-09-23T02:20:29.564Z,9.32
2022-09-23T02:23:14.978Z,11.25
2022-09-23T02:26:07.708Z,9.82
2022-09-23T02:28:37.261Z,10.63
2022-09-23T02:31:27.916Z,10.30
2022-09-23T02:33:58.471Z,10.43
2022-09-23T02:39:01.261Z,10.45
2022-09-23T02:41:32.501Z,10.82
2022-09-23T02:44:04.960Z,10.38
2022-09-23T02:46:32.730Z,11.30
2022-09-23T02:49:01.164Z,11.60
2022-09-23T02:51:28.962Z,11.05
2022-09-23T02:53:57.158Z,11.05
2022-09-23T02:56:24.392Z,10.43
2022-09-23T02:58:55.078Z,10.80
2022-09-23T03:01:45.196Z,9.80
2022-09-23T03:04:38.848Z,10.15
2022-09-23T03:07:24.918Z,11.02
2022-09-23T03:10:11.492Z,10.40
2022-09-23T03:12:52.885Z,10.85
2022-09-23T03:15:57.301Z,11.52
2022-09-23T03:18:35.088Z,11.77
2022-09-23T03:21:07.394Z,11.25
2022-09-23T03:23:37.802Z,11.00
2022-09-23T03:28:41.964Z,11.48
2022-09-23T03:31:08.879Z,12.18
2022-09-23T03:33:38.656Z,12.98
2022-09-23T03:36:29.294Z,13.25
2022-09-23T03:41:34.900Z,13.53
2022-09-23T03:44:03.016Z,13.20
2022-09-23T03:46:30.184Z,13.23
2022-09-23T03:49:06.424Z,13.02
2022-09-23T03:51:33.078Z,14.45
2022-09-23T03:53:59.799Z,15.27
2022-09-23T03:56:26.593Z,13.50
2022-09-23T03:58:53.391Z,15.02
2022-09-23T04:01:21.205Z,14.70
2022-09-23T04:03:49.147Z,15.85
2022-09-23T04:06:15.973Z,15.73
2022-09-23T04:08:42.770Z,16.20
2022-09-23T04:11:09.567Z,16.40
2022-09-23T04:13:36.437Z,16.65
2022-09-23T04:16:03.400Z,16.48
2022-09-23T04:18:31.691Z,16.90
2022-09-23T04:21:02.603Z,15.75
2022-09-23T04:23:29.884Z,16.75
2022-09-23T04:25:56.747Z,15.05
2022-09-23T04:28:23.691Z,15.13
2022-09-23T04:30:50.877Z,15.40
2022-09-23T04:33:18.115Z,14.88
2022-09-23T04:35:44.951Z,15.73
2022-09-23T04:38:12.777Z,16.20
2022-09-23T04:40:40.057Z,16.13
2022-09-23T04:43:10.533Z,16.98
2022-09-23T04:45:39.775Z,16.67
2022-09-23T04:48:06.804Z,15.63
2022-09-23T04:50:33.994Z,16.67
2022-09-23T04:53:01.868Z,16.80
2022-09-23T04:55:29.517Z,17.88
2022-09-23T04:57:56.645Z,15.57
2022-09-23T05:00:24.242Z,15.00
2022-09-23T05:02:51.327Z,14.93
2022-09-23T05:05:23.618Z,16.77
2022-09-23T05:07:51.275Z,16.13
2022-09-23T05:10:18.411Z,16.65
2022-09-23T05:12:45.406Z,16.90
2022-09-23T05:15:13.160Z,15.05
2022-09-23T05:17:39.992Z,16.08
2022-09-23T05:20:08.361Z,16.00
2022-09-23T05:22:35.150Z,17.75
2022-09-23T05:25:02.385Z,18.25
2022-09-23T05:27:29.458Z,17.63
2022-09-23T05:29:56.283Z,16.77
2022-09-23T05:32:23.188Z,17.40
2022-09-23T05:34:50.111Z,15.63
2022-09-23T05:37:16.886Z,16.77
2022-09-23T05:39:43.741Z,17.73
2022-09-23T05:42:12.606Z,18.40
2022-09-23T05:44:39.384Z,24.05
2022-09-23T05:47:06.380Z,28.42
2022-09-23T05:49:55.261Z,26.38
2022-09-23T05:52:20.001Z,29.98
2022-09-23T05:54:47.046Z,26.25
2022-09-23T05:57:13.789Z,23.70
2022-09-23T05:59:40.595Z,21.30
2022-09-23T06:02:09.668Z,23.48
2022-09-23T06:04:36.589Z,24.27
2022-09-23T06:07:03.857Z,25.70
2022-09-23T06:09:35.626Z,25.33
2022-09-23T06:12:03.255Z,26.63
2022-09-23T06:14:30.055Z,29.13
2022-09-23T06:16:57.023Z,27.95
2022-09-23T06:19:24.001Z,24.83
2022-09-23T06:21:50.804Z,26.27
2022-09-23T06:24:20.822Z,24.70
2022-09-23T06:26:50.096Z,22.17
2022-09-23T06:29:18.225Z,19.13
2022-09-23T06:31:45.421Z,17.17
2022-09-23T06:34:14.426Z,21.13
2022-09-23T06:36:45.095Z,24.75
2022-09-23T06:39:14.506Z,24.48
2022-09-23T06:41:42.079Z,24.30
2022-09-23T06:44:09.067Z,26.30
2022-09-23T06:46:37.025Z,23.10
2022-09-23T06:49:04.049Z,23.58
2022-09-23T06:51:31.098Z,23.05
2022-09-23T06:53:58.087Z,22.10
2022-09-23T06:56:24.918Z,22.48
2022-09-23T06:58:52.693Z,22.45
2022-09-23T07:01:20.265Z,24.58
2022-09-23T07:03:48.487Z,23.15
2022-09-23T07:06:15.969Z,19.55
2022-09-23T07:08:45.229Z,17.30
2022-09-23T07:11:13.157Z,18.40
2022-09-23T07:13:41.479Z,18.83
2022-09-23T07:16:09.843Z,17.90
2022-09-23T07:18:37.741Z,13.57
2022-09-23T07:21:15.461Z,13.43
2022-09-23T07:23:46.998Z,17.42
2022-09-23T07:26:15.081Z,11.88
2022-09-23T07:28:42.086Z,9.48
2022-09-23T07:31:14.590Z,8.50
2022-09-23T07:33:45.331Z,9.68
2022-09-23T07:36:15.802Z,7.95
2022-09-23T07:41:31.330Z,10.00
2022-09-23T07:44:01.490Z,11.75
2022-09-23T07:46:42.819Z,9.52
2022-09-23T07:49:26.029Z,10.45
2022-09-23T07:52:12.185Z,14.02
2022-09-23T07:54:48.991Z,11.80
2022-09-23T07:57:33.944Z,12.57
2022-09-23T08:00:17.961Z,10.23
2022-09-23T08:02:53.153Z,10.73
2022-09-23T08:05:20.302Z,9.65
2022-09-23T08:07:50.656Z,5.80
2022-09-23T08:12:49.029Z,4.72
2022-09-23T08:15:17.303Z,4.97
2022-09-23T08:17:47.186Z,4.13
2022-09-23T08:20:34.186Z,5.28
2022-09-23T08:23:02.139Z,4.68
2022-09-23T08:25:31.973Z,4.30
2022-09-23T08:28:00.642Z,5.10
2022-09-23T08:30:27.477Z,3.83
2022-09-23T08:32:54.256Z,4.50
2022-09-23T08:35:21.214Z,4.90
2022-09-23T08:37:48.141Z,4.78
2022-09-23T08:40:16.062Z,4.78
2022-09-23T08:42:46.135Z,4.15
2022-09-23T08:45:20.174Z,4.20
2022-09-23T08:48:01.960Z,4.47
2022-09-23T08:50:51.729Z,4.20
2022-09-23T08:53:28.383Z,4.63
2022-09-23T08:55:57.943Z,4.60
2022-09-23T08:58:37.887Z,2.97
2022-09-23T09:01:12.976Z,3.67
2022-09-23T09:03:50.998Z,5.00
2022-09-23T09:06:41.912Z,4.78
2022-09-23T09:09:54.869Z,4.15
2022-09-23T09:12:32.419Z,3.35
2022-09-23T09:15:06.997Z,3.78
2022-09-23T09:18:08.182Z,3.50
2022-09-23T09:20:49.112Z,4.03
2022-09-23T09:23:31.688Z,3.13
2022-09-23T09:26:03.271Z,4.53
2022-09-23T09:28:41.865Z,4.38
2022-09-23T09:31:27.342Z,3.80
2022-09-23T09:34:05.697Z,3.88
2022-09-23T09:37:25.667Z,3.72
2022-09-23T09:40:05.992Z,3.35
2022-09-23T09:46:39.251Z,4.15
2022-09-23T09:49:23.439Z,4.32
2022-09-23T09:52:16.472Z,3.67
2022-09-23T09:58:13.320Z,4.75
2022-09-23T10:00:46.399Z,3.17
2022-09-23T10:03:13.552Z,3.03
2022-09-23T10:05:56.675Z,3.10
2022-09-23T10:08:37.358Z,3.08
2022-09-23T10:11:11.609Z,4.35
2022-09-23T10:13:39.847Z,3.17
2022-09-23T10:16:09.402Z,3.33
2022-09-23T10:18:48.160Z,2.90
2022-09-23T10:21:27.904Z,3.42
2022-09-23T10:23:58.838Z,2.50
2022-09-23T10:27:01.335Z,2.95
2022-09-23T10:29:56.511Z,3.65
2022-09-23T10:32:46.378Z,2.85
2022-09-23T10:35:28.642Z,2.30
2022-09-23T10:38:36.459Z,2.28
2022-09-23T10:41:36.428Z,2.53
2022-09-23T10:44:37.165Z,3.10
2022-09-23T10:47:11.527Z,2.70
2022-09-23T10:49:58.038Z,3.20
2022-09-23T10:52:53.491Z,3.35
2022-09-23T10:55:35.436Z,1.67
2022-09-23T10:58:24.849Z,1.73
2022-09-23T11:01:28.991Z,1.67
2022-09-23T11:04:14.639Z,2.20
2022-09-23T11:06:58.647Z,1.70
2022-09-23T11:09:54.094Z,1.80
2022-09-23T11:12:45.505Z,1.83
2022-09-23T11:16:05.854Z,1.83
2022-09-23T11:18:52.618Z,2.03
2022-09-23T11:21:44.818Z,1.83
2022-09-23T11:25:07.566Z,1.83
2022-09-23T11:31:27.057Z,1.63
2022-09-23T11:34:25.676Z,1.90
2022-09-23T11:37:24.629Z,4.05
2022-09-23T11:40:30.449Z,1.50
2022-09-23T11:43:26.777Z,1.73
2022-09-23T11:53:23.951Z,1.40
2022-09-23T11:56:35.309Z,1.55
2022-09-23T11:59:07.757Z,1.95
2022-09-23T12:02:22.194Z,1.27
2022-09-23T12:05:13.037Z,2.25
2022-09-23T12:11:24.057Z,0.70
2022-09-23T12:14:02.031Z,1.25
2022-09-23T12:20:42.726Z,1.02
2022-09-23T12:27:59.377Z,1.20
2022-09-23T12:31:25.453Z,1.08
2022-09-23T12:38:05.323Z,1.10
2022-09-23T12:40:57.365Z,1.30
2022-09-23T12:43:38.225Z,1.30
2022-09-23T12:46:30.219Z,1.65
2022-09-23T12:49:03.799Z,1.20
2022-09-23T12:52:13.844Z,1.40
2022-09-23T12:54:44.758Z,1.27
2022-09-23T12:57:32.738Z,1.25
2022-09-23T13:00:24.415Z,1.48
2022-09-23T13:03:14.092Z,1.88
2022-09-23T13:06:26.989Z,1.80
2022-09-23T13:08:57.623Z,2.00
2022-09-23T13:11:30.794Z,1.58
2022-09-23T13:14:02.455Z,1.50
2022-09-23T13:16:33.315Z,1.20
2022-09-23T13:19:38.582Z,1.23
2022-09-23T13:22:12.869Z,1.70
2022-09-23T13:24:46.997Z,2.00
2022-09-23T13:27:25.202Z,2.45
2022-09-23T13:30:04.279Z,1.27
2022-09-23T13:32:47.248Z,1.60
2022-09-23T13:35:14.119Z,1.35
2022-09-23T13:37:47.673Z,1.85
2022-09-23T13:40:27.177Z,1.45
2022-09-23T13:43:12.449Z,1.30
2022-09-23T13:45:43.027Z,1.27
2022-09-23T13:48:15.495Z,1.30
2022-09-23T13:50:50.753Z,1.30
2022-09-23T13:53:38.299Z,1.38
2022-09-23T13:56:15.477Z,1.67
2022-09-23T13:58:43.636Z,1.52
2022-09-23T14:01:34.786Z,1.80
2022-09-23T14:04:02.733Z,1.75
2022-09-23T14:06:32.075Z,1.60
2022-09-23T14:09:02.579Z,2.30
2022-09-23T14:11:35.440Z,2.80
2022-09-23T14:14:07.580Z,1.40
2022-09-23T14:16:38.403Z,2.15
2022-09-23T14:19:07.931Z,1.42
2022-09-23T14:21:39.835Z,2.33
2022-09-23T14:24:14.327Z,2.00
2022-09-23T14:26:44.212Z,1.83
2022-09-23T14:29:18.357Z,1.73
2022-09-23T14:31:56.894Z,1.88
2022-09-23T14:34:52.856Z,5.38
2022-09-23T14:37:44.116Z,3.65
2022-09-23T14:41:18.686Z,3.03
2022-09-23T14:43:52.823Z,2.42
2022-09-23T14:46:21.511Z,2.10
2022-09-23T14:48:58.974Z,2.47
2022-09-23T14:51:51.929Z,2.42
2022-09-23T14:54:36.061Z,3.17
2022-09-23T14:57:28.382Z,2.45
2022-09-23T15:00:01.238Z,2.60
2022-09-23T15:02:39.287Z,3.17
2022-09-23T15:05:13.115Z,2.85
2022-09-23T15:07:43.299Z,2.22
2022-09-23T15:10:23.485Z,2.90
2022-09-23T15:12:53.228Z,4.40
2022-09-23T15:15:24.264Z,4.15
2022-09-23T15:17:51.262Z,5.07
2022-09-23T15:20:21.821Z,8.68
2022-09-23T15:22:54.394Z,5.45
2022-09-23T15:25:28.452Z,4.60
2022-09-23T15:27:59.274Z,5.35
2022-09-23T15:30:26.235Z,4.70
2022-09-23T15:32:53.795Z,5.88
2022-09-23T15:35:25.177Z,4.18
2022-09-23T15:37:54.237Z,4.50
2022-09-23T15:40:24.578Z,4.13
2022-09-23T15:45:33.888Z,4.40
2022-09-23T15:48:23.032Z,3.75
2022-09-23T15:50:51.141Z,5.10
2022-09-23T15:53:24.505Z,3.92
2022-09-23T15:55:51.681Z,5.72
2022-09-23T15:58:20.476Z,5.70
2022-09-23T16:00:55.999Z,4.35
2022-09-23T16:03:30.937Z,6.07
2022-09-23T16:06:02.561Z,6.82
2022-09-23T16:08:32.337Z,8.50
2022-09-23T16:10:59.686Z,4.95
2022-09-23T16:13:26.547Z,4.88
2022-09-23T16:15:53.457Z,4.10
2022-09-23T16:18:20.736Z,4.28
2022-09-23T16:20:49.461Z,4.05
2022-09-23T16:23:35.268Z,5.40
2022-09-23T16:26:06.192Z,4.45
2022-09-23T16:28:38.098Z,4.15
2022-09-23T16:31:05.185Z,4.38
2022-09-23T16:33:32.121Z,4.75
2022-09-23T16:36:01.899Z,7.97
2022-09-23T16:38:29.708Z,5.57
2022-09-23T16:41:00.863Z,7.05
2022-09-23T16:43:32.798Z,7.28
2022-09-23T16:45:59.708Z,11.93
2022-09-23T16:48:27.053Z,23.83
2022-09-23T16:50:54.034Z,19.65
2022-09-23T16:53:20.918Z,9.05
2022-09-23T16:55:49.644Z,10.15
2022-09-23T16:58:16.505Z,11.27
2022-09-23T17:01:02.050Z,13.68
2022-09-23T17:03:42.449Z,9.55
2022-09-23T17:06:13.139Z,10.13
2022-09-23T17:08:43.347Z,16.17
2022-09-23T17:11:10.988Z,14.15
2022-09-23T17:13:40.525Z,12.88
2022-09-23T17:16:07.369Z,10.27
2022-09-23T17:18:34.545Z,12.40
2022-09-23T17:21:06.812Z,17.08
2022-09-23T17:23:35.624Z,20.85
2022-09-23T17:26:03.048Z,21.15
2022-09-23T17:28:29.836Z,20.55
2022-09-23T17:31:01.785Z,16.70
2022-09-23T17:33:31.310Z,15.35
2022-09-23T17:36:00.054Z,15.70
2022-09-23T17:38:29.390Z,13.30
2022-09-23T17:41:01.391Z,12.05
2022-09-23T17:43:31.711Z,11.52
2022-09-23T17:46:06.468Z,10.00
2022-09-23T17:48:38.690Z,7.95
2022-09-23T17:51:21.854Z,9.20
2022-09-23T17:53:50.093Z,8.85
2022-09-23T17:56:21.809Z,11.18
2022-09-23T17:58:49.885Z,18.08
2022-09-23T18:01:20.623Z,14.60
2022-09-23T18:03:48.354Z,12.13
2022-09-23T18:06:20.469Z,14.05
2022-09-23T18:08:49.879Z,15.40
2022-09-23T18:11:28.363Z,14.65
2022-09-23T18:14:03.972Z,12.98
2022-09-23T18:16:36.080Z,14.35
2022-09-23T18:19:04.234Z,15.00
2022-09-23T18:21:36.885Z,14.25
2022-09-23T18:24:30.917Z,12.32
2022-09-23T18:26:51.194Z,13.32
2022-09-23T18:29:19.055Z,12.50
2022-09-23T18:31:47.481Z,11.63
2022-09-23T18:34:16.876Z,12.82
2022-09-23T18:36:45.588Z,12.18
2022-09-23T18:39:12.887Z,12.18
2022-09-23T18:41:40.974Z,11.02
2022-09-23T18:44:09.216Z,10.45
2022-09-23T18:46:37.371Z,12.18
2022-09-23T18:49:40.217Z,12.77
2022-09-23T18:52:07.070Z,12.77
2022-09-23T18:54:34.111Z,14.02
2022-09-23T18:57:01.274Z,17.13
2022-09-23T18:59:29.642Z,19.17
2022-09-23T19:01:57.495Z,20.77
2022-09-23T19:04:26.360Z,21.52
2022-09-23T19:06:54.846Z,25.17
2022-09-23T19:09:22.817Z,22.35
2022-09-23T19:11:53.375Z,22.48
2022-09-23T19:14:20.516Z,21.60
2022-09-23T19:16:49.357Z,18.67
2022-09-23T19:19:16.592Z,19.00
2022-09-23T19:21:43.534Z,17.55
2022-09-23T19:24:14.402Z,23.90
2022-09-23T19:26:42.473Z,33.22
2022-09-23T19:29:14.481Z,26.02
2022-09-23T19:31:44.413Z,31.55
2022-09-23T19:34:21.232Z,32.40
2022-09-23T19:36:48.506Z,30.23
2022-09-23T19:39:25.052Z,28.85
2022-09-23T19:41:55.688Z,28.23
2022-09-23T19:44:24.414Z,28.25
2022-09-23T19:46:56.030Z,27.65
2022-09-23T19:49:24.999Z,25.70
2022-09-23T19:51:52.689Z,25.85
2022-09-23T19:54:21.075Z,28.27
2022-09-23T19:56:51.422Z,27.27
2022-09-23T19:59:19.414Z,25.73
2022-09-23T20:01:48.368Z,27.85
2022-09-23T20:04:16.027Z,27.75
2022-09-23T20:06:43.048Z,27.73
2022-09-23T20:09:10.162Z,33.55
2022-09-23T20:11:37.138Z,41.95
2022-09-23T20:14:06.247Z,27.85
2022-09-23T20:16:35.352Z,31.85
2022-09-23T20:19:05.160Z,36.13
2022-09-23T20:21:33.754Z,40.10
2022-09-23T20:24:01.238Z,40.28
2022-09-23T20:26:46.641Z,41.63
2022-09-23T20:29:15.884Z,43.78
2022-09-23T20:31:43.443Z,42.58
2022-09-23T20:34:11.061Z,47.50
2022-09-23T20:36:41.015Z,52.53
2022-09-23T20:39:09.703Z,46.42
2022-09-23T20:41:38.174Z,60.17
2022-09-23T20:44:08.071Z,61.83
2022-09-23T20:46:35.949Z,59.13
2022-09-23T20:49:03.939Z,54.28
2022-09-23T20:51:37.004Z,55.33
2022-09-23T20:54:04.208Z,53.70
2022-09-23T20:56:31.526Z,52.92
2022-09-23T20:59:02.391Z,39.22
2022-09-23T21:01:31.898Z,44.15
2022-09-23T21:03:58.664Z,40.37
2022-09-23T21:06:26.249Z,36.22
2022-09-23T21:08:54.626Z,37.10
2022-09-23T21:11:21.997Z,35.78
2022-09-23T21:13:51.288Z,32.25
2022-09-23T21:16:22.850Z,32.88
2022-09-23T21:18:51.001Z,33.30
2022-09-23T21:21:19.759Z,33.28
2022-09-23T21:23:47.731Z,32.40
2022-09-23T21:26:18.690Z,31.83
2022-09-23T21:28:49.868Z,30.80
2022-09-23T21:31:23.388Z,28.67
2022-09-23T21:34:01.356Z,29.75
2022-09-23T21:36:32.766Z,30.67
2022-09-23T21:39:01.850Z,33.45
2022-09-23T21:41:28.903Z,33.75
2022-09-23T21:43:56.313Z,34.05
2022-09-23T21:46:23.823Z,35.17
2022-09-23T21:48:53.676Z,36.33
2022-09-23T21:51:27.178Z,36.53
2022-09-23T21:53:56.830Z,37.95
2022-09-23T21:56:28.659Z,39.20
2022-09-23T21:58:57.054Z,39.08
2022-09-23T22:01:26.752Z,41.90
2022-09-23T22:04:05.068Z,47.30
2022-09-23T22:06:32.686Z,44.40
2022-09-23T22:09:02.154Z,45.45
2022-09-23T22:11:49.937Z,47.83
2022-09-23T22:14:18.541Z,46.83
2022-09-23T22:16:45.766Z,43.42
2022-09-23T22:19:13.850Z,44.80
2022-09-23T22:21:42.284Z,44.85
2022-09-23T22:24:10.662Z,42.55
2022-09-23T22:26:40.270Z,40.90
2022-09-23T22:29:27.593Z,43.03
2022-09-23T22:32:13.221Z,45.60
2022-09-23T22:34:51.550Z,42.17
2022-09-23T22:37:30.468Z,42.95
2022-09-23T22:39:57.398Z,46.42
2022-09-23T22:42:24.991Z,49.75
2022-09-23T22:44:52.289Z,51.08
2022-09-23T22:47:20.081Z,47.13
2022-09-23T22:49:47.374Z,41.03
2022-09-23T22:52:16.339Z,40.63
2022-09-23T22:54:43.342Z,36.42
2022-09-23T22:57:10.408Z,34.70
2022-09-23T22:59:37.663Z,33.40
2022-09-23T23:02:07.721Z,32.75
2022-09-23T23:04:36.532Z,33.42
2022-09-23T23:07:03.393Z,33.50
2022-09-23T23:09:30.663Z,31.40
2022-09-23T23:11:57.492Z,30.48
2022-09-23T23:14:24.411Z,32.75
2022-09-23T23:16:51.173Z,30.73
2022-09-23T23:19:19.251Z,29.67
2022-09-23T23:21:46.188Z,32.53
2022-09-23T23:24:18.585Z,32.63
2022-09-23T23:26:45.766Z,32.63
2022-09-23T23:29:14.685Z,30.33
2022-09-23T23:31:41.853Z,31.30
2022-09-23T23:34:12.141Z,30.95
2022-09-23T23:36:39.476Z,31.80
2022-09-23T23:39:07.884Z,31.65
2022-09-23T23:41:34.704Z,30.75
2022-09-23T23:44:02.060Z,31.60
2022-09-23T23:46:31.454Z,31.67
2022-09-23T23:48:59.277Z,31.48
2022-09-23T23:51:26.751Z,31.42
2022-09-23T23:53:54.829Z,31.58
2022-09-23T23:56:23.561Z,31.95
2022-09-23T23:59:02.577Z,33.13
